aviador You're here:

KHDO Decoded Metar

HONDO in TX, USA
Report Time2018-01-18 09:51:00
UTC Time2018-01-18 10:05:57
Flight Rules vfr VFR
WindCalm
Visibility9999 m
Phenomena:N/A
Clouds:Overcast 050 Hf
Expected CloudBase > 4,400 ft AGL from Temp-Dew spread
Ceiling5,000 ft
Temp02°C (ISA -11)
Dew Point-9°C (44% RH)
AAT-1.0°C
QNH1034 hPa
Density Alt-1,093 ft
Elevation925 ft
Report Wrong Elevation
Raw Report
METAR KHDO 180951Z AUTO 00000KT 10SM OVC050 02/M09 A3052 RMK AO2 SLP337
T00171094=

Extra information for KHDO:More info

Metar Taf Metar & Taf Last 4 Metars F.Rules Stats Wind Profile Meteogram Temp Stats Airport Information Weather charts Add Link Nearby VenuesMetar ALERT Operation Metar Decoded Social comments

AIRNAV info for KHDO